createdAt,value
2023-03-29T00:00:15.874Z,33.50
2023-03-29T00:03:40.348Z,32.20
2023-03-29T00:06:47.772Z,34.40
2023-03-29T00:09:50.926Z,29.00
2023-03-29T00:12:54.396Z,36.40
2023-03-29T00:15:57.495Z,32.80
2023-03-29T00:19:00.685Z,36.40
2023-03-29T00:22:07.510Z,30.40
2023-03-29T00:25:11.629Z,28.20
2023-03-29T00:28:14.906Z,31.10
2023-03-29T00:31:18.590Z,29.10
2023-03-29T00:34:26.407Z,28.50
2023-03-29T00:37:32.202Z,33.80
2023-03-29T00:40:42.258Z,29.30
2023-03-29T00:44:05.458Z,29.60
2023-03-29T00:47:08.830Z,29.40
2023-03-29T00:50:22.607Z,31.30
2023-03-29T00:53:28.719Z,30.10
2023-03-29T00:56:37.202Z,34.40
2023-03-29T00:59:42.925Z,31.30
2023-03-29T01:02:51.096Z,30.00
2023-03-29T01:06:02.851Z,31.70
2023-03-29T01:09:10.428Z,33.40
2023-03-29T01:12:18.456Z,29.40
2023-03-29T01:15:27.825Z,31.40
2023-03-29T01:18:31.494Z,27.80
2023-03-29T01:21:47.897Z,30.70
2023-03-29T01:25:18.932Z,27.30
2023-03-29T01:28:29.094Z,25.60
2023-03-29T01:31:39.270Z,25.70
2023-03-29T01:34:48.900Z,24.00
2023-03-29T01:38:15.966Z,27.90
2023-03-29T01:41:19.419Z,28.30
2023-03-29T01:44:25.663Z,25.50
2023-03-29T01:48:01.619Z,25.30
2023-03-29T01:51:15.029Z,21.10
2023-03-29T01:54:26.369Z,22.70
2023-03-29T01:57:32.079Z,23.90
2023-03-29T02:00:36.342Z,21.90
2023-03-29T02:03:45.267Z,23.40
2023-03-29T02:06:50.456Z,21.50
2023-03-29T02:09:54.791Z,22.40
2023-03-29T02:12:58.695Z,33.20
2023-03-29T02:16:04.841Z,44.80
2023-03-29T02:19:10.727Z,36.60
2023-03-29T02:22:16.637Z,34.40
2023-03-29T02:25:22.564Z,32.10
2023-03-29T02:28:27.078Z,27.50
2023-03-29T02:31:41.422Z,30.10
2023-03-29T02:34:58.703Z,26.90
2023-03-29T02:38:09.101Z,27.40
2023-03-29T02:41:13.069Z,25.50
2023-03-29T02:44:24.638Z,26.20
2023-03-29T02:47:41.781Z,22.20
2023-03-29T02:50:47.969Z,28.20
2023-03-29T02:53:57.246Z,25.70
2023-03-29T02:57:06.587Z,27.20
2023-03-29T03:00:11.581Z,25.90
2023-03-29T03:03:15.725Z,25.30
2023-03-29T03:06:21.496Z,24.90
2023-03-29T03:09:24.914Z,25.10
2023-03-29T03:12:28.814Z,22.70
2023-03-29T03:15:35.646Z,22.70
2023-03-29T03:18:39.187Z,21.00
2023-03-29T03:21:42.379Z,26.10
2023-03-29T03:24:46.221Z,24.80
2023-03-29T03:27:50.371Z,27.70
2023-03-29T03:30:55.162Z,23.50
2023-03-29T03:34:01.328Z,25.20
2023-03-29T03:37:13.913Z,26.60
2023-03-29T03:40:17.430Z,27.40
2023-03-29T03:43:20.803Z,23.10
2023-03-29T03:46:24.325Z,25.50
2023-03-29T03:49:28.223Z,27.20
2023-03-29T03:52:31.988Z,26.70
2023-03-29T03:55:35.401Z,24.00
2023-03-29T03:58:44.648Z,28.90
2023-03-29T04:01:47.844Z,24.20
2023-03-29T04:04:54.812Z,27.70
2023-03-29T04:08:03.240Z,29.60
2023-03-29T04:11:26.259Z,32.20
2023-03-29T04:14:31.725Z,32.10
2023-03-29T04:17:47.770Z,41.00
2023-03-29T04:20:57.468Z,46.80
2023-03-29T04:24:01.753Z,37.40
2023-03-29T04:27:05.460Z,30.40
2023-03-29T04:30:09.704Z,34.50
2023-03-29T04:33:35.833Z,36.60
2023-03-29T04:36:39.594Z,38.30
2023-03-29T04:39:49.391Z,39.90
2023-03-29T04:42:54.450Z,37.90
2023-03-29T04:45:58.626Z,37.60
2023-03-29T04:49:26.115Z,42.50
2023-03-29T04:52:33.094Z,42.70
2023-03-29T04:55:36.667Z,44.80
2023-03-29T04:58:42.319Z,47.60
2023-03-29T05:01:45.876Z,52.90
2023-03-29T05:04:49.300Z,49.20
2023-03-29T05:07:54.922Z,39.70
2023-03-29T05:11:02.553Z,38.00
2023-03-29T05:14:07.420Z,38.30
2023-03-29T05:17:10.868Z,38.50
2023-03-29T05:20:14.071Z,42.30
2023-03-29T05:23:19.388Z,43.90
2023-03-29T05:26:54.513Z,40.70
2023-03-29T05:29:57.845Z,44.40
2023-03-29T05:33:05.799Z,51.00
2023-03-29T05:36:15.310Z,45.40
2023-03-29T05:39:24.223Z,47.50
2023-03-29T05:42:27.708Z,41.80
2023-03-29T05:45:37.553Z,42.60
2023-03-29T05:48:40.895Z,39.20
2023-03-29T05:51:45.705Z,40.40
2023-03-29T05:54:48.972Z,42.60
2023-03-29T05:57:52.546Z,37.60
2023-03-29T06:01:00.598Z,50.70
2023-03-29T06:04:30.868Z,43.90
2023-03-29T06:08:00.626Z,41.60
2023-03-29T06:11:18.894Z,38.10
2023-03-29T06:14:42.460Z,39.00
2023-03-29T06:17:57.339Z,31.10
2023-03-29T06:21:04.320Z,35.70
2023-03-29T06:24:07.831Z,30.10
2023-03-29T06:27:15.665Z,31.50
2023-03-29T06:30:20.926Z,32.90
2023-03-29T06:33:27.685Z,29.20
2023-03-29T06:39:42.722Z,30.20
2023-03-29T06:42:58.412Z,27.80
2023-03-29T06:46:20.051Z,30.80
2023-03-29T06:49:46.364Z,29.00
2023-03-29T06:53:05.855Z,29.40
2023-03-29T06:56:11.158Z,25.50
2023-03-29T06:59:29.321Z,23.30
2023-03-29T07:02:49.370Z,23.60
2023-03-29T07:05:56.861Z,28.00
2023-03-29T07:09:01.823Z,21.20
2023-03-29T07:12:26.472Z,16.10
2023-03-29T07:15:33.704Z,17.80
2023-03-29T07:19:09.557Z,17.40
2023-03-29T07:22:35.791Z,18.20
2023-03-29T07:25:41.089Z,18.40
2023-03-29T07:28:44.494Z,20.50
2023-03-29T07:31:47.669Z,15.70
2023-03-29T07:35:09.466Z,17.20
2023-03-29T07:38:12.673Z,15.50
2023-03-29T07:41:17.427Z,15.80
2023-03-29T07:44:23.509Z,15.90
2023-03-29T07:47:26.939Z,16.40
2023-03-29T07:50:32.657Z,21.80
2023-03-29T07:53:37.167Z,21.50
2023-03-29T07:56:42.347Z,23.00
2023-03-29T07:59:51.882Z,20.50
2023-03-29T08:02:58.122Z,25.00
2023-03-29T08:06:04.771Z,21.80
2023-03-29T08:09:08.836Z,22.60
2023-03-29T08:12:15.887Z,23.10
2023-03-29T08:15:19.285Z,22.50
2023-03-29T08:18:22.557Z,19.80
2023-03-29T08:21:26.543Z,18.20
2023-03-29T08:24:30.092Z,19.00
2023-03-29T08:27:37.822Z,18.70
2023-03-29T08:30:42.141Z,17.00
2023-03-29T08:33:45.720Z,17.50
2023-03-29T08:37:15.306Z,16.80
2023-03-29T08:40:30.172Z,13.60
2023-03-29T08:44:09.651Z,13.10
2023-03-29T08:47:47.968Z,13.60
2023-03-29T08:50:58.551Z,14.60
2023-03-29T08:54:01.857Z,13.10
2023-03-29T08:57:29.300Z,13.00
2023-03-29T09:00:44.350Z,11.70
2023-03-29T09:03:49.850Z,8.70
2023-03-29T09:07:03.489Z,13.70
2023-03-29T09:10:20.593Z,8.70
2023-03-29T09:13:52.963Z,9.90
2023-03-29T09:17:18.019Z,11.10
2023-03-29T09:20:27.581Z,9.30
2023-03-29T09:24:00.272Z,8.50
2023-03-29T09:27:26.504Z,10.70
2023-03-29T09:30:50.803Z,9.50
2023-03-29T09:34:07.120Z,8.70
2023-03-29T09:37:35.473Z,6.20
2023-03-29T09:40:49.101Z,6.10
2023-03-29T09:44:00.565Z,7.00
2023-03-29T09:47:19.357Z,9.10
2023-03-29T09:50:35.297Z,7.30
2023-03-29T09:53:40.934Z,5.90
2023-03-29T09:57:13.895Z,9.20
2023-03-29T10:00:17.873Z,8.00
2023-03-29T10:03:26.501Z,7.40
2023-03-29T10:06:36.957Z,6.80
2023-03-29T10:09:44.896Z,7.20
2023-03-29T10:12:59.338Z,5.80
2023-03-29T10:16:05.284Z,7.40
2023-03-29T10:19:27.872Z,7.90
2023-03-29T10:22:37.991Z,8.20
2023-03-29T10:25:42.766Z,7.60
2023-03-29T10:28:46.483Z,5.30
2023-03-29T10:31:50.864Z,3.50
2023-03-29T10:34:55.504Z,11.20
2023-03-29T10:38:08.046Z,10.40
2023-03-29T10:41:12.842Z,4.80
2023-03-29T10:44:42.681Z,6.80
2023-03-29T10:47:48.570Z,7.00
2023-03-29T10:50:53.306Z,7.50
2023-03-29T10:54:00.400Z,5.20
2023-03-29T10:57:13.346Z,5.00
2023-03-29T11:00:35.782Z,7.00
2023-03-29T11:03:48.302Z,5.30
2023-03-29T11:07:20.010Z,6.30
2023-03-29T11:10:55.990Z,8.00
2023-03-29T11:14:40.627Z,9.60
2023-03-29T11:17:51.066Z,5.60
2023-03-29T11:21:10.781Z,4.40
2023-03-29T11:24:47.036Z,4.60
2023-03-29T11:27:53.262Z,8.00
2023-03-29T11:30:59.024Z,7.10
2023-03-29T11:34:02.354Z,5.50
2023-03-29T11:37:25.540Z,5.70
2023-03-29T11:40:29.854Z,5.00
2023-03-29T11:43:46.810Z,4.00
2023-03-29T11:47:01.582Z,5.70
2023-03-29T11:50:22.637Z,4.00
2023-03-29T11:53:37.223Z,6.80
2023-03-29T11:56:46.896Z,4.80
2023-03-29T12:00:15.955Z,5.40
2023-03-29T12:03:32.445Z,4.40
2023-03-29T12:07:00.817Z,7.50
2023-03-29T12:10:07.050Z,6.70
2023-03-29T12:13:56.280Z,4.80
2023-03-29T12:17:03.423Z,4.20
2023-03-29T12:20:29.392Z,4.20
2023-03-29T12:23:35.547Z,7.40
2023-03-29T12:26:57.851Z,6.30
2023-03-29T12:30:38.516Z,6.00
2023-03-29T12:34:20.040Z,6.70
2023-03-29T12:38:21.268Z,5.90
2023-03-29T12:42:14.843Z,5.30
2023-03-29T12:45:43.468Z,4.30
2023-03-29T12:48:55.574Z,4.40
2023-03-29T12:52:02.467Z,7.00
2023-03-29T12:55:23.890Z,6.60
2023-03-29T12:58:39.603Z,4.00
2023-03-29T13:02:00.079Z,3.90
2023-03-29T13:05:05.639Z,5.50
2023-03-29T13:08:35.105Z,5.00
2023-03-29T13:11:42.737Z,7.10
2023-03-29T13:14:51.924Z,5.10
2023-03-29T13:18:22.046Z,5.80
2023-03-29T13:21:43.730Z,6.20
2023-03-29T13:25:02.255Z,6.30
2023-03-29T13:28:20.424Z,7.70
2023-03-29T13:31:47.153Z,5.90
2023-03-29T13:34:58.556Z,5.30
2023-03-29T13:38:22.270Z,16.50
2023-03-29T13:41:32.253Z,4.50
2023-03-29T13:44:45.564Z,6.40
2023-03-29T13:47:58.722Z,7.00
2023-03-29T13:51:13.370Z,6.30
2023-03-29T13:54:35.029Z,6.60
2023-03-29T13:57:49.747Z,9.40
2023-03-29T14:01:16.642Z,6.20
2023-03-29T14:04:26.688Z,7.20
2023-03-29T14:07:33.454Z,6.00
2023-03-29T14:10:42.425Z,9.30
2023-03-29T14:13:45.663Z,12.20
2023-03-29T14:16:49.484Z,8.40
2023-03-29T14:19:53.685Z,7.10
2023-03-29T14:22:56.940Z,6.20
2023-03-29T14:26:10.650Z,4.70
2023-03-29T14:29:14.638Z,5.90
2023-03-29T14:32:19.859Z,6.60
2023-03-29T14:35:30.867Z,7.90
2023-03-29T14:38:37.621Z,4.60
2023-03-29T14:41:48.700Z,7.20
2023-03-29T14:44:58.277Z,8.60
2023-03-29T14:48:02.341Z,5.40
2023-03-29T14:51:06.536Z,12.80
2023-03-29T14:54:19.545Z,10.50
2023-03-29T14:57:29.143Z,7.90
2023-03-29T15:00:44.086Z,5.40
2023-03-29T15:03:57.081Z,7.10
2023-03-29T15:07:00.416Z,6.70
2023-03-29T15:10:06.478Z,11.10
2023-03-29T15:13:19.665Z,7.10
2023-03-29T15:16:22.964Z,8.20
2023-03-29T15:19:27.290Z,7.30
2023-03-29T15:22:34.570Z,7.30
2023-03-29T15:25:46.316Z,8.40
2023-03-29T15:28:55.648Z,6.90
2023-03-29T15:31:59.716Z,8.40
2023-03-29T15:35:06.384Z,22.20
2023-03-29T15:38:12.675Z,11.50
2023-03-29T15:41:16.530Z,10.30
2023-03-29T15:44:33.245Z,11.60
2023-03-29T15:47:36.370Z,9.40
2023-03-29T15:50:39.544Z,7.90
2023-03-29T15:53:42.705Z,9.10
2023-03-29T15:57:08.698Z,11.90
2023-03-29T16:00:13.791Z,9.70
2023-03-29T16:03:18.026Z,10.90
2023-03-29T16:06:23.901Z,12.50
2023-03-29T16:09:27.418Z,14.40
2023-03-29T16:12:30.606Z,9.50
2023-03-29T16:15:36.968Z,9.30
2023-03-29T16:18:40.080Z,10.60
2023-03-29T16:21:43.194Z,10.10
2023-03-29T16:24:46.364Z,10.60
2023-03-29T16:27:58.122Z,14.20
2023-03-29T16:31:01.250Z,14.40
2023-03-29T16:34:05.306Z,11.60
2023-03-29T16:37:08.618Z,11.20
2023-03-29T16:40:12.587Z,11.80
2023-03-29T16:43:17.116Z,11.80
2023-03-29T16:46:20.941Z,11.60
2023-03-29T16:49:24.448Z,15.50
2023-03-29T16:52:27.729Z,13.30
2023-03-29T16:55:30.902Z,16.50
2023-03-29T16:58:34.064Z,17.00
2023-03-29T17:01:37.380Z,21.10
2023-03-29T17:04:40.938Z,15.20
2023-03-29T17:07:44.549Z,16.20
2023-03-29T17:10:53.042Z,15.00
2023-03-29T17:13:56.266Z,15.00
2023-03-29T17:16:59.576Z,14.40
2023-03-29T17:20:06.430Z,13.20
2023-03-29T17:23:10.031Z,12.80
2023-03-29T17:26:13.404Z,14.90
2023-03-29T17:29:16.745Z,18.40
2023-03-29T17:32:19.831Z,16.70
2023-03-29T17:35:22.944Z,22.00
2023-03-29T17:38:27.190Z,13.60
2023-03-29T17:41:31.049Z,16.90
2023-03-29T17:44:34.572Z,15.10
2023-03-29T17:47:38.292Z,17.00
2023-03-29T17:50:41.365Z,20.00
2023-03-29T17:53:44.566Z,18.10
2023-03-29T17:56:48.884Z,17.60
2023-03-29T17:59:52.371Z,19.80
2023-03-29T18:02:55.650Z,16.20
2023-03-29T18:05:58.946Z,16.80
2023-03-29T18:09:02.067Z,16.90
2023-03-29T18:12:05.528Z,18.60
2023-03-29T18:15:09.046Z,17.30
2023-03-29T18:18:12.071Z,16.00
2023-03-29T18:21:16.853Z,16.80
2023-03-29T18:24:20.009Z,22.20
2023-03-29T18:27:23.183Z,25.20
2023-03-29T18:30:26.339Z,32.90
2023-03-29T18:33:35.158Z,26.80
2023-03-29T18:36:38.549Z,20.00
2023-03-29T18:39:41.858Z,22.50
2023-03-29T18:42:45.001Z,22.00
2023-03-29T18:45:48.421Z,21.80
2023-03-29T18:48:53.372Z,27.60
2023-03-29T18:51:56.859Z,24.30
2023-03-29T18:54:59.969Z,25.40
2023-03-29T18:58:03.594Z,24.70
2023-03-29T19:01:07.844Z,26.00
2023-03-29T19:04:11.584Z,23.20
2023-03-29T19:07:15.160Z,29.70
2023-03-29T19:10:18.434Z,33.40
2023-03-29T19:13:21.704Z,27.40
2023-03-29T19:16:25.778Z,29.10
2023-03-29T19:19:28.957Z,29.70
2023-03-29T19:22:33.965Z,22.70
2023-03-29T19:25:37.948Z,24.60
2023-03-29T19:28:41.133Z,23.70
2023-03-29T19:31:44.282Z,27.70
2023-03-29T19:34:47.699Z,24.20
2023-03-29T19:37:50.816Z,31.60
2023-03-29T19:40:54.000Z,18.50
2023-03-29T19:43:57.111Z,17.00
2023-03-29T19:47:00.394Z,18.00
2023-03-29T19:50:04.903Z,19.30
2023-03-29T19:53:08.911Z,16.20
2023-03-29T19:56:15.594Z,19.10
2023-03-29T19:59:20.265Z,21.90
2023-03-29T20:02:23.358Z,18.80
2023-03-29T20:05:27.372Z,17.70
2023-03-29T20:08:30.559Z,19.30
2023-03-29T20:11:33.803Z,31.30
2023-03-29T20:14:40.259Z,35.60
2023-03-29T20:17:43.555Z,31.30
2023-03-29T20:20:49.511Z,31.50
2023-03-29T20:23:52.648Z,26.60
2023-03-29T20:26:55.956Z,28.50
2023-03-29T20:30:05.112Z,25.30
2023-03-29T20:33:08.535Z,24.10
2023-03-29T20:36:12.472Z,24.30
2023-03-29T20:39:18.762Z,23.30
2023-03-29T20:42:24.564Z,26.00
2023-03-29T20:45:27.805Z,24.90
2023-03-29T20:48:30.931Z,30.90
2023-03-29T20:51:33.991Z,25.20
2023-03-29T20:54:38.838Z,24.10
2023-03-29T20:57:42.270Z,24.80
2023-03-29T21:00:46.886Z,27.90
2023-03-29T21:03:50.042Z,28.70
2023-03-29T21:06:53.681Z,31.30
2023-03-29T21:09:56.942Z,28.50
2023-03-29T21:13:02.793Z,27.30
2023-03-29T21:16:06.625Z,24.10
2023-03-29T21:19:10.137Z,24.20
2023-03-29T21:22:13.863Z,25.60
2023-03-29T21:25:17.498Z,25.40
2023-03-29T21:28:20.628Z,25.50
2023-03-29T21:31:23.961Z,23.70
2023-03-29T21:34:27.104Z,23.30
2023-03-29T21:37:30.400Z,21.90
2023-03-29T21:40:36.040Z,22.30
2023-03-29T21:43:39.623Z,19.10
2023-03-29T21:46:42.734Z,19.10
2023-03-29T21:49:45.853Z,18.70
2023-03-29T21:52:49.006Z,16.70
2023-03-29T21:55:52.554Z,16.00
2023-03-29T21:58:55.928Z,17.90
2023-03-29T22:01:59.110Z,17.40
2023-03-29T22:05:02.278Z,14.80
2023-03-29T22:08:06.682Z,14.00
2023-03-29T22:11:13.849Z,15.60
2023-03-29T22:14:17.001Z,12.80
2023-03-29T22:17:20.112Z,13.10
2023-03-29T22:20:24.350Z,14.70
2023-03-29T22:23:27.802Z,13.50
2023-03-29T22:26:32.525Z,10.60
2023-03-29T22:29:35.681Z,15.10
2023-03-29T22:32:38.797Z,12.00
2023-03-29T22:35:42.264Z,13.40
2023-03-29T22:38:46.399Z,13.00
2023-03-29T22:41:49.593Z,11.10
2023-03-29T22:44:52.651Z,11.50
2023-03-29T22:47:55.875Z,10.50
2023-03-29T22:50:59.347Z,12.10
2023-03-29T22:54:02.494Z,8.90
2023-03-29T22:57:05.721Z,9.20
2023-03-29T23:00:10.512Z,10.40
2023-03-29T23:03:13.961Z,10.90
2023-03-29T23:06:17.346Z,9.30
2023-03-29T23:09:21.068Z,12.30
2023-03-29T23:12:24.273Z,9.80
2023-03-29T23:15:29.049Z,9.30
2023-03-29T23:18:34.939Z,8.30
2023-03-29T23:21:38.447Z,12.80
2023-03-29T23:24:43.568Z,8.90
2023-03-29T23:27:46.665Z,8.80
2023-03-29T23:31:10.731Z,9.20
2023-03-29T23:34:13.921Z,9.60
2023-03-29T23:37:17.044Z,8.70
2023-03-29T23:40:20.774Z,9.00
2023-03-29T23:43:23.939Z,7.40
2023-03-29T23:46:27.078Z,8.70
2023-03-29T23:49:30.182Z,8.10
2023-03-29T23:52:33.826Z,8.20
2023-03-29T23:55:37.153Z,7.90
2023-03-29T23:58:40.326Z,7.90
